Terminal Aerodrome Forecast
Issued by NWS

Home | Current Version | Previous Version | Text Only | Print | Product List | Glossary On
Versions: 1 2 3 4 5 6 7 8 9 10 11 12 13 14 15 16 17 18 19 20 21 22 23 24 25 26 27 28 29 30 31 32 33 34 35 36 37
548
FTUS43 KLSX 271957 AAB
TAFUIN
TAF AMD
KUIN 271957Z 2720/2818 12011KT 4SM BR OVC008
     FM272100 12011KT P6SM OVC035
     FM272200 13009KT P6SM VCTS BKN060CB
      TEMPO 2722/2801 3SM -TSRA BKN040CB
     FM280300 13006KT P6SM BKN040
     FM280800 23006KT P6SM SCT020 BKN040=

USA.gov is the U.S. government's official web portal to all federal, state and local government web resources and services.